sensor_id;sensor_type;location;lat;lon;timestamp;pressure;altitude;pressure_sealevel;temperature;humidity
23677;BME280;31493;49.058;12.190;2023-07-08T00:00:19;96396.97;;;21.28;32.87
23677;BME280;31493;49.058;12.190;2023-07-08T00:02:47;96388.41;;;21.26;32.70
23677;BME280;31493;49.058;12.190;2023-07-08T00:05:16;96393.88;;;21.25;32.84
23677;BME280;31493;49.058;12.190;2023-07-08T00:07:45;96392.78;;;21.19;33.07
23677;BME280;31493;49.058;12.190;2023-07-08T00:10:14;96393.13;;;21.16;33.22
23677;BME280;31493;49.058;12.190;2023-07-08T00:12:42;96381.53;;;21.17;33.13
23677;BME280;31493;49.058;12.190;2023-07-08T00:15:09;96379.56;;;21.19;33.33
23677;BME280;31493;49.058;12.190;2023-07-08T00:17:37;96380.63;;;21.10;33.48
23677;BME280;31493;49.058;12.190;2023-07-08T00:20:12;96360.47;;;21.24;33.51
23677;BME280;31493;49.058;12.190;2023-07-08T00:22:41;96368.69;;;21.14;33.61
23677;BME280;31493;49.058;12.190;2023-07-08T00:25:09;96359.66;;;21.23;33.52
23677;BME280;31493;49.058;12.190;2023-07-08T00:27:36;96369.97;;;21.18;33.52
23677;BME280;31493;49.058;12.190;2023-07-08T00:30:22;96362.69;;;21.35;33.56
23677;BME280;31493;49.058;12.190;2023-07-08T00:32:49;96371.34;;;21.14;33.82
23677;BME280;31493;49.058;12.190;2023-07-08T00:35:21;96372.59;;;21.18;34.00
23677;BME280;31493;49.058;12.190;2023-07-08T00:37:50;96369.31;;;21.16;34.17
23677;BME280;31493;49.058;12.190;2023-07-08T00:40:21;96364.66;;;21.18;33.98
23677;BME280;31493;49.058;12.190;2023-07-08T00:42:48;96377.16;;;21.09;33.99
23677;BME280;31493;49.058;12.190;2023-07-08T00:45:21;96370.63;;;21.20;34.10
23677;BME280;31493;49.058;12.190;2023-07-08T00:47:49;96369.88;;;21.11;34.24
23677;BME280;31493;49.058;12.190;2023-07-08T00:50:17;96370.69;;;21.12;34.31
23677;BME280;31493;49.058;12.190;2023-07-08T00:52:44;96360.09;;;21.12;34.18
23677;BME280;31493;49.058;12.190;2023-07-08T00:55:12;96369.22;;;21.09;34.26
23677;BME280;31493;49.058;12.190;2023-07-08T00:57:44;96373.81;;;21.16;34.84
23677;BME280;31493;49.058;12.190;2023-07-08T01:00:14;96374.53;;;21.09;34.60
23677;BME280;31493;49.058;12.190;2023-07-08T01:02:45;96368.94;;;21.04;34.92
23677;BME280;31493;49.058;12.190;2023-07-08T01:05:14;96368.22;;;21.10;34.64
23677;BME280;31493;49.058;12.190;2023-07-08T01:07:49;96377.34;;;21.08;35.19
23677;BME280;31493;49.058;12.190;2023-07-08T01:10:20;96381.00;;;21.07;34.74
23677;BME280;31493;49.058;12.190;2023-07-08T01:12:53;96385.91;;;21.10;35.22
23677;BME280;31493;49.058;12.190;2023-07-08T01:15:23;96386.44;;;21.05;35.04
23677;BME280;31493;49.058;12.190;2023-07-08T01:17:52;96394.75;;;21.02;35.04
23677;BME280;31493;49.058;12.190;2023-07-08T01:20:20;96390.47;;;21.01;35.08
23677;BME280;31493;49.058;12.190;2023-07-08T01:22:48;96373.22;;;21.05;35.27
23677;BME280;31493;49.058;12.190;2023-07-08T01:25:16;96370.88;;;21.10;35.17
23677;BME280;31493;49.058;12.190;2023-07-08T01:27:45;96370.44;;;21.07;35.24
23677;BME280;31493;49.058;12.190;2023-07-08T01:30:14;96370.97;;;21.02;35.01
23677;BME280;31493;49.058;12.190;2023-07-08T01:32:46;96371.16;;;21.16;35.09
23677;BME280;31493;49.058;12.190;2023-07-08T01:35:14;96361.84;;;21.05;35.08
23677;BME280;31493;49.058;12.190;2023-07-08T01:37:44;96359.66;;;21.08;35.27
23677;BME280;31493;49.058;12.190;2023-07-08T01:40:24;96350.81;;;21.16;35.19
23677;BME280;31493;49.058;12.190;2023-07-08T01:42:51;96365.19;;;20.99;35.22
23677;BME280;31493;49.058;12.190;2023-07-08T01:45:20;96348.91;;;20.95;35.42
23677;BME280;31493;49.058;12.190;2023-07-08T01:47:50;96358.56;;;21.03;35.29
23677;BME280;31493;49.058;12.190;2023-07-08T01:50:19;96355.91;;;20.88;35.53
23677;BME280;31493;49.058;12.190;2023-07-08T01:52:47;96356.97;;;20.94;35.30
23677;BME280;31493;49.058;12.190;2023-07-08T01:55:15;96342.78;;;20.95;35.17
23677;BME280;31493;49.058;12.190;2023-07-08T01:57:43;96353.19;;;20.96;35.16
23677;BME280;31493;49.058;12.190;2023-07-08T02:00:11;96344.53;;;21.02;35.21
23677;BME280;31493;49.058;12.190;2023-07-08T02:02:39;96351.53;;;20.95;35.24
23677;BME280;31493;49.058;12.190;2023-07-08T02:05:06;96345.44;;;20.95;35.19
23677;BME280;31493;49.058;12.190;2023-07-08T02:07:33;96350.16;;;20.84;35.61
23677;BME280;31493;49.058;12.190;2023-07-08T02:10:00;96352.16;;;20.82;35.39
23677;BME280;31493;49.058;12.190;2023-07-08T02:12:27;96354.44;;;20.85;35.47
23677;BME280;31493;49.058;12.190;2023-07-08T02:14:56;96352.88;;;20.76;35.79
23677;BME280;31493;49.058;12.190;2023-07-08T02:17:23;96349.22;;;20.77;35.47
23677;BME280;31493;49.058;12.190;2023-07-08T02:19:50;96361.91;;;20.82;35.38
23677;BME280;31493;49.058;12.190;2023-07-08T02:22:17;96352.97;;;20.83;35.22
23677;BME280;31493;49.058;12.190;2023-07-08T02:24:44;96349.13;;;20.85;35.42
23677;BME280;31493;49.058;12.190;2023-07-08T02:27:11;96352.50;;;20.79;35.39
23677;BME280;31493;49.058;12.190;2023-07-08T02:29:38;96348.03;;;20.80;35.44
23677;BME280;31493;49.058;12.190;2023-07-08T02:32:08;96353.78;;;20.83;35.33
23677;BME280;31493;49.058;12.190;2023-07-08T02:34:35;96347.03;;;20.81;35.42
23677;BME280;31493;49.058;12.190;2023-07-08T02:37:03;96351.22;;;20.75;35.25
23677;BME280;31493;49.058;12.190;2023-07-08T02:39:30;96349.22;;;20.77;34.97
23677;BME280;31493;49.058;12.190;2023-07-08T02:41:57;96351.75;;;20.71;35.55
23677;BME280;31493;49.058;12.190;2023-07-08T02:44:24;96358.06;;;20.70;35.51
23677;BME280;31493;49.058;12.190;2023-07-08T02:46:52;96360.97;;;20.75;35.42
23677;BME280;31493;49.058;12.190;2023-07-08T02:49:20;96352.78;;;20.84;35.23
23677;BME280;31493;49.058;12.190;2023-07-08T02:51:47;96348.59;;;20.90;34.84
23677;BME280;31493;49.058;12.190;2023-07-08T02:54:14;96349.13;;;20.85;34.87
23677;BME280;31493;49.058;12.190;2023-07-08T02:56:41;96343.56;;;20.80;35.22
23677;BME280;31493;49.058;12.190;2023-07-08T02:59:08;96358.06;;;20.70;35.42
23677;BME280;31493;49.058;12.190;2023-07-08T03:01:35;96349.75;;;20.73;35.25
23677;BME280;31493;49.058;12.190;2023-07-08T03:04:07;96356.78;;;20.80;35.15
23677;BME280;31493;49.058;12.190;2023-07-08T03:06:36;96339.00;;;20.74;35.36
23677;BME280;31493;49.058;12.190;2023-07-08T03:09:03;96346.28;;;20.72;35.20
23677;BME280;31493;49.058;12.190;2023-07-08T03:11:29;96349.28;;;20.69;35.23
23677;BME280;31493;49.058;12.190;2023-07-08T03:13:56;96341.00;;;20.72;35.18
23677;BME280;31493;49.058;12.190;2023-07-08T03:16:23;96345.00;;;20.68;35.16
23677;BME280;31493;49.058;12.190;2023-07-08T03:18:50;96345.19;;;20.67;35.11
23677;BME280;31493;49.058;12.190;2023-07-08T03:21:18;96338.44;;;20.64;35.39
23677;BME280;31493;49.058;12.190;2023-07-08T03:23:47;96348.47;;;20.69;35.41
23677;BME280;31493;49.058;12.190;2023-07-08T03:26:15;96344.72;;;20.63;35.34
23677;BME280;31493;49.058;12.190;2023-07-08T03:28:43;96340.59;;;20.60;35.59
23677;BME280;31493;49.058;12.190;2023-07-08T03:31:11;96354.63;;;20.61;35.31
23677;BME280;31493;49.058;12.190;2023-07-08T03:33:38;96356.28;;;20.62;35.58
23677;BME280;31493;49.058;12.190;2023-07-08T03:36:10;96351.66;;;20.64;36.02
23677;BME280;31493;49.058;12.190;2023-07-08T03:38:37;96354.03;;;20.51;35.74
23677;BME280;31493;49.058;12.190;2023-07-08T03:41:06;96359.97;;;20.53;35.60
23677;BME280;31493;49.058;12.190;2023-07-08T03:43:33;96360.16;;;20.51;35.62
23677;BME280;31493;49.058;12.190;2023-07-08T03:46:00;96362.50;;;20.46;35.37
23677;BME280;31493;49.058;12.190;2023-07-08T03:48:27;96360.16;;;20.51;35.87
23677;BME280;31493;49.058;12.190;2023-07-08T03:50:54;96357.03;;;20.02;37.42
23677;BME280;31493;49.058;12.190;2023-07-08T03:53:21;96354.13;;;18.78;40.50
23677;BME280;31493;49.058;12.190;2023-07-08T03:55:48;96360.66;;;18.16;41.76
23677;BME280;31493;49.058;12.190;2023-07-08T03:58:16;96366.53;;;17.86;42.84
23677;BME280;31493;49.058;12.190;2023-07-08T04:00:43;96367.97;;;17.80;42.48
23677;BME280;31493;49.058;12.190;2023-07-08T04:03:11;96356.31;;;17.75;43.46
23677;BME280;31493;49.058;12.190;2023-07-08T04:05:38;96359.78;;;17.83;42.67
23677;BME280;31493;49.058;12.190;2023-07-08T04:08:05;96362.06;;;17.86;43.09
23677;BME280;31493;49.058;12.190;2023-07-08T04:10:32;96352.53;;;17.77;42.90
23677;BME280;31493;49.058;12.190;2023-07-08T04:12:59;96364.41;;;17.81;43.04
23677;BME280;31493;49.058;12.190;2023-07-08T04:15:27;96365.88;;;17.84;43.63
23677;BME280;31493;49.058;12.190;2023-07-08T04:17:54;96371.94;;;17.84;43.59
23677;BME280;31493;49.058;12.190;2023-07-08T04:20:23;96362.75;;;17.88;42.66
23677;BME280;31493;49.058;12.190;2023-07-08T04:22:50;96363.56;;;17.81;42.78
23677;BME280;31493;49.058;12.190;2023-07-08T04:25:18;96358.78;;;17.76;42.92
23677;BME280;31493;49.058;12.190;2023-07-08T04:27:45;96348.09;;;17.78;43.14
23677;BME280;31493;49.058;12.190;2023-07-08T04:30:20;96354.72;;;17.98;42.94
23677;BME280;31493;49.058;12.190;2023-07-08T04:32:50;96369.19;;;18.02;42.83
23677;BME280;31493;49.058;12.190;2023-07-08T04:35:18;96369.03;;;18.04;42.72
23677;BME280;31493;49.058;12.190;2023-07-08T04:37:45;96368.06;;;18.13;42.92
23677;BME280;31493;49.058;12.190;2023-07-08T04:40:16;96363.31;;;18.25;42.57
23677;BME280;31493;49.058;12.190;2023-07-08T04:42:45;96364.44;;;18.14;42.44
23677;BME280;31493;49.058;12.190;2023-07-08T04:45:15;96370.28;;;18.58;41.82
23677;BME280;31493;49.058;12.190;2023-07-08T04:47:43;96375.81;;;18.23;42.45
23677;BME280;31493;49.058;12.190;2023-07-08T04:50:19;96370.88;;;18.19;42.30
23677;BME280;31493;49.058;12.190;2023-07-08T04:52:46;96376.63;;;18.23;41.88
23677;BME280;31493;49.058;12.190;2023-07-08T04:55:13;96365.47;;;18.29;41.90
23677;BME280;31493;49.058;12.190;2023-07-08T04:57:40;96358.75;;;18.35;42.16
23677;BME280;31493;49.058;12.190;2023-07-08T05:00:12;96372.91;;;18.50;42.36
23677;BME280;31493;49.058;12.190;2023-07-08T05:02:41;96371.25;;;18.65;41.28
23677;BME280;31493;49.058;12.190;2023-07-08T05:05:08;96369.28;;;18.67;41.60
23677;BME280;31493;49.058;12.190;2023-07-08T05:07:36;96379.47;;;18.79;41.18
23677;BME280;31493;49.058;12.190;2023-07-08T05:10:04;96377.34;;;18.82;41.27
23677;BME280;31493;49.058;12.190;2023-07-08T05:12:32;96362.13;;;19.09;41.37
23677;BME280;31493;49.058;12.190;2023-07-08T05:14:59;96367.94;;;18.96;40.78
23677;BME280;31493;49.058;12.190;2023-07-08T05:17:27;96370.56;;;18.96;41.14
23677;BME280;31493;49.058;12.190;2023-07-08T05:19:54;96378.13;;;18.91;41.31
23677;BME280;31493;49.058;12.190;2023-07-08T05:22:23;96365.13;;;19.61;39.54
23677;BME280;31493;49.058;12.190;2023-07-08T05:26:00;96375.72;;;23.03;40.51
23677;BME280;31493;49.058;12.190;2023-07-08T05:28:28;96371.59;;;23.00;40.92
23677;BME280;31493;49.058;12.190;2023-07-08T05:30:55;96381.19;;;22.93;40.83
23677;BME280;31493;49.058;12.190;2023-07-08T05:33:23;96376.09;;;22.84;40.87
23677;BME280;31493;49.058;12.190;2023-07-08T05:35:50;96378.50;;;23.10;40.54
23677;BME280;31493;49.058;12.190;2023-07-08T05:38:17;96383.38;;;23.21;40.56
23677;BME280;31493;49.058;12.190;2023-07-08T05:40:48;96383.47;;;23.44;40.15
23677;BME280;31493;49.058;12.190;2023-07-08T05:43:16;96380.22;;;23.34;40.16
23677;BME280;31493;49.058;12.190;2023-07-08T05:45:44;96385.94;;;23.45;40.93
23677;BME280;31493;49.058;12.190;2023-07-08T05:48:11;96388.50;;;23.62;40.14
23677;BME280;31493;49.058;12.190;2023-07-08T05:50:39;96391.25;;;23.68;39.67
23677;BME280;31493;49.058;12.190;2023-07-08T05:53:09;96389.41;;;23.77;40.10
23677;BME280;31493;49.058;12.190;2023-07-08T05:55:36;96390.25;;;23.69;40.17
23677;BME280;31493;49.058;12.190;2023-07-08T05:58:03;96383.56;;;23.81;40.60
23677;BME280;31493;49.058;12.190;2023-07-08T06:00:32;96394.19;;;23.73;40.85
23677;BME280;31493;49.058;12.190;2023-07-08T06:02:59;96396.56;;;23.91;40.28
23677;BME280;31493;49.058;12.190;2023-07-08T06:05:26;96396.44;;;24.07;40.25
23677;BME280;31493;49.058;12.190;2023-07-08T06:08:16;96404.53;;;20.56;40.13
23677;BME280;31493;49.058;12.190;2023-07-08T06:10:46;96404.81;;;20.61;40.11
23677;BME280;31493;49.058;12.190;2023-07-08T06:13:13;96417.69;;;20.87;39.92
23677;BME280;31493;49.058;12.190;2023-07-08T06:15:41;96409.84;;;20.94;39.55
23677;BME280;31493;49.058;12.190;2023-07-08T06:18:08;96415.16;;;20.94;39.54
23677;BME280;31493;49.058;12.190;2023-07-08T06:20:36;96421.44;;;20.93;39.78
23677;BME280;31493;49.058;12.190;2023-07-08T06:23:03;96407.56;;;21.13;40.20
23677;BME280;31493;49.058;12.190;2023-07-08T06:25:31;96413.75;;;21.21;40.76
23677;BME280;31493;49.058;12.190;2023-07-08T06:27:58;96412.94;;;21.79;39.41
23677;BME280;31493;49.058;12.190;2023-07-08T06:30:25;96412.91;;;21.43;39.80
23677;BME280;31493;49.058;12.190;2023-07-08T06:32:52;96406.31;;;21.54;40.06
23677;BME280;31493;49.058;12.190;2023-07-08T06:35:22;96409.78;;;21.69;40.40
23677;BME280;31493;49.058;12.190;2023-07-08T06:37:49;96417.44;;;21.64;38.94
23677;BME280;31493;49.058;12.190;2023-07-08T06:40:16;96401.66;;;21.71;38.56
23677;BME280;31493;49.058;12.190;2023-07-08T06:42:46;96407.97;;;21.70;39.11
23677;BME280;31493;49.058;12.190;2023-07-08T06:45:14;96403.84;;;21.67;39.33
23677;BME280;31493;49.058;12.190;2023-07-08T06:47:41;96398.31;;;21.98;39.48
23677;BME280;31493;49.058;12.190;2023-07-08T06:50:09;96403.97;;;22.25;39.57
23677;BME280;31493;49.058;12.190;2023-07-08T06:52:36;96401.88;;;22.20;38.71
23677;BME280;31493;49.058;12.190;2023-07-08T06:55:07;96405.97;;;22.23;38.06
23677;BME280;31493;49.058;12.190;2023-07-08T06:57:36;96400.50;;;22.24;37.77
23677;BME280;31493;49.058;12.190;2023-07-08T07:00:06;96400.22;;;22.40;37.92
23677;BME280;31493;49.058;12.190;2023-07-08T07:02:34;96396.69;;;22.33;37.51
23677;BME280;31493;49.058;12.190;2023-07-08T07:05:01;96394.19;;;22.68;38.34
23677;BME280;31493;49.058;12.190;2023-07-08T07:07:28;96391.69;;;22.81;37.60
23677;BME280;31493;49.058;12.190;2023-07-08T07:09:55;96392.97;;;22.70;37.72
23677;BME280;31493;49.058;12.190;2023-07-08T07:12:24;96390.25;;;23.07;37.34
23677;BME280;31493;49.058;12.190;2023-07-08T07:14:51;96380.19;;;23.30;37.16
23677;BME280;31493;49.058;12.190;2023-07-08T07:17:20;96383.72;;;23.03;37.66
23677;BME280;31493;49.058;12.190;2023-07-08T07:19:47;96383.41;;;23.47;36.48
23677;BME280;31493;49.058;12.190;2023-07-08T07:22:14;96390.63;;;22.76;36.52
23677;BME280;31493;49.058;12.190;2023-07-08T07:24:41;96388.13;;;22.95;36.91
23677;BME280;31493;49.058;12.190;2023-07-08T07:27:09;96396.63;;;23.12;35.91
23677;BME280;31493;49.058;12.190;2023-07-08T07:29:41;96400.00;;;23.28;35.71
23677;BME280;31493;49.058;12.190;2023-07-08T07:32:09;96398.00;;;23.08;34.81
23677;BME280;31493;49.058;12.190;2023-07-08T07:34:38;96389.81;;;23.59;34.54
23677;BME280;31493;49.058;12.190;2023-07-08T07:37:06;96395.53;;;23.63;35.13
23677;BME280;31493;49.058;12.190;2023-07-08T07:39:33;96403.94;;;23.66;35.57
23677;BME280;31493;49.058;12.190;2023-07-08T07:42:00;96399.50;;;23.87;33.72
23677;BME280;31493;49.058;12.190;2023-07-08T07:44:27;96401.56;;;23.85;34.52
23677;BME280;31493;49.058;12.190;2023-07-08T07:46:54;96396.50;;;23.96;35.75
23677;BME280;31493;49.058;12.190;2023-07-08T07:49:21;96390.69;;;24.21;32.87
23677;BME280;31493;49.058;12.190;2023-07-08T07:51:50;96394.59;;;24.31;32.90
23677;BME280;31493;49.058;12.190;2023-07-08T07:54:17;96393.19;;;24.42;32.69
23677;BME280;31493;49.058;12.190;2023-07-08T07:56:44;96385.03;;;24.50;33.27
23677;BME280;31493;49.058;12.190;2023-07-08T07:59:11;96388.09;;;24.67;30.45
23677;BME280;31493;49.058;12.190;2023-07-08T08:01:38;96397.94;;;24.73;29.31
23677;BME280;31493;49.058;12.190;2023-07-08T08:04:09;96402.66;;;24.78;28.55
23677;BME280;31493;49.058;12.190;2023-07-08T08:06:36;96403.28;;;24.87;27.68
23677;BME280;31493;49.058;12.190;2023-07-08T08:09:05;96410.84;;;25.09;29.11
23677;BME280;31493;49.058;12.190;2023-07-08T08:11:32;96406.75;;;25.14;28.04
23677;BME280;31493;49.058;12.190;2023-07-08T08:14:00;96421.09;;;25.26;28.16
23677;BME280;31493;49.058;12.190;2023-07-08T08:16:27;96421.91;;;25.20;27.75
23677;BME280;31493;49.058;12.190;2023-07-08T08:18:54;96427.03;;;24.95;28.55
23677;BME280;31493;49.058;12.190;2023-07-08T08:21:21;96431.75;;;25.19;28.88
23677;BME280;31493;49.058;12.190;2023-07-08T08:23:48;96416.19;;;25.36;28.76
23677;BME280;31493;49.058;12.190;2023-07-08T08:26:16;96414.97;;;25.38;27.55
23677;BME280;31493;49.058;12.190;2023-07-08T08:28:46;96431.16;;;25.37;27.53
23677;BME280;31493;49.058;12.190;2023-07-08T08:31:13;96430.34;;;25.36;27.56
23677;BME280;31493;49.058;12.190;2023-07-08T08:33:40;96430.72;;;25.20;28.16
23677;BME280;31493;49.058;12.190;2023-07-08T08:36:09;96443.63;;;25.36;27.47
23677;BME280;31493;49.058;12.190;2023-07-08T08:38:36;96434.19;;;25.41;27.12
23677;BME280;31493;49.058;12.190;2023-07-08T08:41:04;96428.38;;;25.77;26.79
23677;BME280;31493;49.058;12.190;2023-07-08T08:43:35;96423.41;;;26.00;27.65
23677;BME280;31493;49.058;12.190;2023-07-08T08:46:06;96418.13;;;25.94;28.00
23677;BME280;31493;49.058;12.190;2023-07-08T08:48:41;96416.03;;;26.02;27.30
23677;BME280;31493;49.058;12.190;2023-07-08T08:51:14;96419.66;;;26.14;26.57
23677;BME280;31493;49.058;12.190;2023-07-08T08:53:43;96419.69;;;26.46;27.14
23677;BME280;31493;49.058;12.190;2023-07-08T08:56:18;96432.81;;;26.16;27.38
23677;BME280;31493;49.058;12.190;2023-07-08T08:58:55;96412.56;;;26.40;27.09
23677;BME280;31493;49.058;12.190;2023-07-08T09:01:25;96413.44;;;26.27;26.25
23677;BME280;31493;49.058;12.190;2023-07-08T09:03:55;96413.78;;;26.44;26.48
23677;BME280;31493;49.058;12.190;2023-07-08T09:06:25;96422.19;;;26.48;27.41
23677;BME280;31493;49.058;12.190;2023-07-08T09:08:54;96437.13;;;26.49;26.83
23677;BME280;31493;49.058;12.190;2023-07-08T09:11:32;96420.50;;;26.60;27.52
23677;BME280;31493;49.058;12.190;2023-07-08T09:14:04;96421.63;;;27.02;26.39
23677;BME280;31493;49.058;12.190;2023-07-08T09:16:43;96428.19;;;26.75;26.43
23677;BME280;31493;49.058;12.190;2023-07-08T09:19:13;96421.03;;;26.68;26.53
23677;BME280;31493;49.058;12.190;2023-07-08T09:21:44;96429.16;;;26.80;25.97
23677;BME280;31493;49.058;12.190;2023-07-08T09:24:17;96424.66;;;26.81;27.03
23677;BME280;31493;49.058;12.190;2023-07-08T09:26:46;96429.13;;;26.87;25.77
23677;BME280;31493;49.058;12.190;2023-07-08T09:29:18;96431.94;;;27.23;26.14
23677;BME280;31493;49.058;12.190;2023-07-08T09:31:45;96416.94;;;27.22;26.23
23677;BME280;31493;49.058;12.190;2023-07-08T09:34:13;96405.25;;;26.29;27.26
23677;BME280;31493;49.058;12.190;2023-07-08T09:36:42;96415.84;;;25.84;27.95
23677;BME280;31493;49.058;12.190;2023-07-08T09:39:10;96411.75;;;25.88;27.14
23677;BME280;31493;49.058;12.190;2023-07-08T09:41:39;96413.66;;;26.26;27.74
23677;BME280;31493;49.058;12.190;2023-07-08T09:44:18;96418.09;;;26.38;28.67
23677;BME280;31493;49.058;12.190;2023-07-08T09:46:49;96411.84;;;26.20;27.83
23677;BME280;31493;49.058;12.190;2023-07-08T09:49:18;96422.63;;;25.86;28.19
23677;BME280;31493;49.058;12.190;2023-07-08T09:51:45;96418.94;;;25.94;28.61
23677;BME280;31493;49.058;12.190;2023-07-08T09:54:14;96417.19;;;26.20;28.83
23677;BME280;31493;49.058;12.190;2023-07-08T09:56:44;96415.53;;;26.25;28.50
23677;BME280;31493;49.058;12.190;2023-07-08T09:59:19;96420.59;;;26.33;28.50
23677;BME280;31493;49.058;12.190;2023-07-08T10:01:48;96424.09;;;26.72;27.14
23677;BME280;31493;49.058;12.190;2023-07-08T10:04:17;96420.88;;;26.88;27.06
23677;BME280;31493;49.058;12.190;2023-07-08T10:06:47;96427.41;;;26.67;28.42
23677;BME280;31493;49.058;12.190;2023-07-08T10:09:19;96418.09;;;26.38;28.31
23677;BME280;31493;49.058;12.190;2023-07-08T10:11:50;96427.06;;;26.51;27.54
23677;BME280;31493;49.058;12.190;2023-07-08T10:14:26;96429.09;;;26.62;28.04
23677;BME280;31493;49.058;12.190;2023-07-08T10:16:54;96425.47;;;26.43;27.74
23677;BME280;31493;49.058;12.190;2023-07-08T10:19:22;96426.31;;;26.37;27.37
23677;BME280;31493;49.058;12.190;2023-07-08T10:21:55;96425.91;;;26.78;27.58
23677;BME280;31493;49.058;12.190;2023-07-08T10:24:36;96432.47;;;27.32;27.07
23677;BME280;31493;49.058;12.190;2023-07-08T10:27:11;96429.00;;;27.00;27.35
23677;BME280;31493;49.058;12.190;2023-07-08T10:29:52;96431.34;;;26.65;27.24
23677;BME280;31493;49.058;12.190;2023-07-08T10:32:28;96440.16;;;26.14;27.80
23677;BME280;31493;49.058;12.190;2023-07-08T10:35:02;96433.78;;;26.28;26.70
23677;BME280;31493;49.058;12.190;2023-07-08T10:37:40;96445.09;;;26.62;26.90
23677;BME280;31493;49.058;12.190;2023-07-08T10:40:21;96447.84;;;27.12;26.00
23677;BME280;31493;49.058;12.190;2023-07-08T10:43:03;96446.00;;;27.12;26.26
23677;BME280;31493;49.058;12.190;2023-07-08T10:45:41;96439.03;;;27.05;27.42
23677;BME280;31493;49.058;12.190;2023-07-08T10:48:23;96428.53;;;26.53;27.58
23677;BME280;31493;49.058;12.190;2023-07-08T10:51:03;96433.91;;;26.33;27.21
23677;BME280;31493;49.058;12.190;2023-07-08T10:53:46;96436.78;;;26.38;28.10
23677;BME280;31493;49.058;12.190;2023-07-08T10:56:20;96449.13;;;26.26;27.82
23677;BME280;31493;49.058;12.190;2023-07-08T10:59:06;96445.94;;;26.87;26.24
23677;BME280;31493;49.058;12.190;2023-07-08T11:01:47;96452.03;;;27.51;26.95
23677;BME280;31493;49.058;12.190;2023-07-08T11:07:12;96442.44;;;27.62;27.15
23677;BME280;31493;49.058;12.190;2023-07-08T11:09:46;96438.50;;;27.89;26.72
23677;BME280;31493;49.058;12.190;2023-07-08T11:12:22;96448.56;;;28.06;27.41
23677;BME280;31493;49.058;12.190;2023-07-08T11:14:55;96442.88;;;28.20;26.04
23677;BME280;31493;49.058;12.190;2023-07-08T11:17:29;96440.25;;;28.50;24.29
23677;BME280;31493;49.058;12.190;2023-07-08T11:20:02;96444.41;;;28.76;23.91
23677;BME280;31493;49.058;12.190;2023-07-08T11:22:33;96440.59;;;29.38;24.67
23677;BME280;31493;49.058;12.190;2023-07-08T11:25:03;96431.22;;;29.28;22.69
23677;BME280;31493;49.058;12.190;2023-07-08T11:27:37;96431.56;;;29.08;23.09
23677;BME280;31493;49.058;12.190;2023-07-08T11:30:21;96433.41;;;28.96;23.59
23677;BME280;31493;49.058;12.190;2023-07-08T11:32:58;96430.31;;;29.11;23.56
23677;BME280;31493;49.058;12.190;2023-07-08T11:35:35;96432.78;;;29.36;23.05
23677;BME280;31493;49.058;12.190;2023-07-08T11:38:03;96429.06;;;29.49;23.08
23677;BME280;31493;49.058;12.190;2023-07-08T11:40:32;96437.22;;;29.42;22.11
23677;BME280;31493;49.058;12.190;2023-07-08T11:43:05;96426.44;;;29.07;21.73
23677;BME280;31493;49.058;12.190;2023-07-08T11:45:35;96424.97;;;29.34;21.97
23677;BME280;31493;49.058;12.190;2023-07-08T11:48:10;96426.81;;;29.69;21.47
23677;BME280;31493;49.058;12.190;2023-07-08T11:50:41;96422.84;;;29.13;19.81
23677;BME280;31493;49.058;12.190;2023-07-08T11:53:11;96427.34;;;28.29;22.31
23677;BME280;31493;49.058;12.190;2023-07-08T11:55:44;96412.28;;;27.98;21.76
23677;BME280;31493;49.058;12.190;2023-07-08T11:58:20;96415.69;;;27.87;22.78
23677;BME280;31493;49.058;12.190;2023-07-08T12:00:52;96412.28;;;27.80;23.84
23677;BME280;31493;49.058;12.190;2023-07-08T12:03:39;96410.09;;;28.43;23.99
23677;BME280;31493;49.058;12.190;2023-07-08T12:06:40;96412.72;;;28.13;24.05
23677;BME280;31493;49.058;12.190;2023-07-08T12:09:14;96412.44;;;27.85;24.73
23677;BME280;31493;49.058;12.190;2023-07-08T12:11:44;96414.41;;;27.53;24.60
23677;BME280;31493;49.058;12.190;2023-07-08T12:14:12;96408.72;;;27.24;24.18
23677;BME280;31493;49.058;12.190;2023-07-08T12:16:40;96415.78;;;27.37;25.41
23677;BME280;31493;49.058;12.190;2023-07-08T12:19:13;96408.44;;;27.75;25.06
23677;BME280;31493;49.058;12.190;2023-07-08T12:21:43;96406.59;;;27.76;23.94
23677;BME280;31493;49.058;12.190;2023-07-08T12:24:10;96400.19;;;27.77;23.27
23677;BME280;31493;49.058;12.190;2023-07-08T12:26:39;96400.97;;;27.41;23.78
23677;BME280;31493;49.058;12.190;2023-07-08T12:29:08;96399.50;;;27.63;24.21
23677;BME280;31493;49.058;12.190;2023-07-08T12:31:37;96398.50;;;27.83;23.28
23677;BME280;31493;49.058;12.190;2023-07-08T12:34:12;96399.38;;;27.76;23.79
23677;BME280;31493;49.058;12.190;2023-07-08T12:36:41;96396.25;;;27.18;24.26
23677;BME280;31493;49.058;12.190;2023-07-08T12:39:11;96398.63;;;27.26;24.58
23677;BME280;31493;49.058;12.190;2023-07-08T12:41:42;96408.38;;;27.39;24.33
23677;BME280;31493;49.058;12.190;2023-07-08T12:44:13;96408.34;;;28.49;23.25
23677;BME280;31493;49.058;12.190;2023-07-08T12:46:41;96402.47;;;28.28;23.23
23677;BME280;31493;49.058;12.190;2023-07-08T12:49:08;96399.69;;;28.65;23.30
23677;BME280;31493;49.058;12.190;2023-07-08T12:51:36;96404.66;;;28.50;23.83
23677;BME280;31493;49.058;12.190;2023-07-08T12:54:03;96404.84;;;28.48;23.46
23677;BME280;31493;49.058;12.190;2023-07-08T12:56:30;96397.88;;;28.47;23.35
23677;BME280;31493;49.058;12.190;2023-07-08T12:58:57;96397.50;;;28.32;23.19
23677;BME280;31493;49.058;12.190;2023-07-08T13:01:28;96401.47;;;28.41;22.61
23677;BME280;31493;49.058;12.190;2023-07-08T13:03:59;96401.41;;;28.60;23.30
23677;BME280;31493;49.058;12.190;2023-07-08T13:06:30;96397.69;;;28.61;23.61